Kirsten H — WY7979 — position and weather

sailwx.info

Track history (hours):
 
Tides and Currents Weather Stations Pressure Air Temp Water Temp Dewpoint Dewpoint Depression Visibility Wind Speed Wind Dir Waves Ship Positions

Kirsten H

Owner: BOYER TOWING, KETCHIKAN, AK. More information available from US FCC via Universal Licensing System and Coast Guard Vessel Documentation Center.

Last reported at 2017-Jan-20 23:33 UTC. Time now 2017-Feb-21 21:41 UTC.
Position N 47°32' W 122°20'.
Warning: this ship's position is 31 days out of date.

Length 23 m; draft 3.7 m.

Type: Tow > 200 m length. MMSI: 366623050.

Date/timePositionNaut miles runAvg speedWind from/ knotsBaromVisibWave heightAir tempDewpointWater temp
2017-Jan-20 23:33N 47°32' W 122°20'0 0.2
2017-Jan-20 21:31N 47°32' W 122°19'3 3.2
2017-Jan-20 20:33N 47°35' W 122°22'5 5.4
2017-Jan-20 19:33N 47°40' W 122°24'0 0.3
2017-Jan-20 18:33N 47°40' W 122°23'0 0.0
2017-Jan-20 17:33N 47°40' W 122°23'0 0.0
2017-Jan-20 16:33N 47°40' W 122°23'0 0.0
2017-Jan-20 15:33N 47°40' W 122°23'0 0.0
2017-Jan-20 14:33N 47°40' W 122°23'0 0.0
2017-Jan-20 13:33N 47°40' W 122°23'0 0.0
2017-Jan-20 12:33N 47°40' W 122°23'0 0.0
2017-Jan-20 11:33N 47°40' W 122°23'0 0.0
2017-Jan-20 10:33N 47°40' W 122°23'0 0.0
2017-Jan-20 09:33N 47°40' W 122°23'0 0.0
2017-Jan-20 08:33N 47°40' W 122°23'0 0.0
2017-Jan-20 07:33N 47°40' W 122°23'0 0.0
2017-Jan-20 06:33N 47°40' W 122°23'0 0.0
2017-Jan-20 05:33N 47°40' W 122°23'0 0.0
2017-Jan-20 04:33N 47°40' W 122°23'0 0.0
2017-Jan-20 03:34N 47°40' W 122°23'0 0.0
2017-Jan-20 02:33N 47°40' W 122°23'0 0.0
2017-Jan-20 01:33N 47°40' W 122°23'2 1.8
2017-Jan-20 00:33N 47°41' W 122°25'1010.1
2017-Jan-19 23:33N 47°51' W 122°29'9 8.6
2017-Jan-19 22:33N 47°58' W 122°36'30 7.3
2017-Jan-19 18:29N 48°27' W 122°44'7 7.1
2017-Jan-19 17:33N 48°31' W 122°36'0 0.4
2017-Jan-19 16:33N 48°31' W 122°36'1 0.6
2017-Jan-19 15:33N 48°31' W 122°36'1 0.7
2017-Jan-19 14:33N 48°32' W 122°37'2 2.3
2017-Jan-19 13:33N 48°31' W 122°40'1 1.3
2017-Jan-19 12:33N 48°32' W 122°42'3 3.3
2017-Jan-19 11:33N 48°29' W 122°43'4 3.6
2017-Jan-19 10:33N 48°25' W 122°44'24 7.5
2017-Jan-19 07:16N 48°01' W 122°37'6 8.8
2017-Jan-19 06:33N 47°57' W 122°31'8 8.0
2017-Jan-19 05:33N 47°49' W 122°26'8 8.0
2017-Jan-19 04:33N 47°41' W 122°27'7 6.6
2017-Jan-19 03:33N 47°35' W 122°22'3 3.4
2017-Jan-19 02:33N 47°32' W 122°20'0 0.0
2017-Jan-19 01:33N 47°32' W 122°20'  
2017-Jan-15 07:33N 47°32' W 122°20'0 0.5
2017-Jan-15 06:32N 47°33' W 122°20'2 2.2
2017-Jan-15 05:33N 47°35' W 122°22'2 1.9
2017-Jan-15 04:33N 47°36' W 122°23'5 5.5
2017-Jan-15 03:33N 47°40' W 122°28'5 5.4
2017-Jan-15 02:33N 47°46' W 122°27'5 5.5
2017-Jan-15 01:33N 47°51' W 122°29'6 5.9
2017-Jan-15 00:33N 47°56' W 122°33'14 6.9
2017-Jan-14 22:33N 48°08' W 122°43'15 6.5
2017-Jan-14 20:15N 48°23' W 122°45'5 7.2
2017-Jan-14 19:33N 48°28' W 122°44'6 6.1
2017-Jan-14 18:33N 48°31' W 122°36'1 0.7
2017-Jan-14 17:33N 48°31' W 122°36'0 0.1
2017-Jan-14 16:33N 48°31' W 122°36'3 3.4
2017-Jan-14 15:33N 48°31' W 122°41'30 5.5
2017-Jan-14 10:06N 48°01' W 122°37'3 5.3
2017-Jan-14 09:33N 47°59' W 122°35'6 6.0
2017-Jan-14 08:33N 47°55' W 122°28'8 7.7
2017-Jan-14 07:33N 47°47' W 122°26'8 8.1
2017-Jan-14 06:33N 47°39' W 122°27'7 7.1
2017-Jan-14 05:33N 47°33' W 122°21'1 1.4
2017-Jan-14 04:33N 47°32' W 122°20'2 2.4
2017-Jan-14 03:33N 47°34' W 122°21'17 4.2
2017-Jan-13 23:33N 47°20' W 122°33'4 3.7
2017-Jan-13 22:33N 47°16' W 122°33'6 5.6
2017-Jan-13 21:33N 47°11' W 122°37'1 0.2
2017-Jan-13 17:30N 47°10' W 122°38'6 6.2
2017-Jan-13 16:29N 47°16' W 122°34'5 5.5
2017-Jan-13 15:33N 47°21' W 122°33'7 7.5
2017-Jan-13 14:33N 47°28' W 122°31'8 7.5
2017-Jan-13 13:33N 47°35' W 122°26'4 4.1
2017-Jan-13 12:33N 47°33' W 122°20'1 0.1
2017-Jan-12 19:10N 47°32' W 122°20'0 0.0
2017-Jan-12 18:33N 47°32' W 122°20'0 0.0
2017-Jan-12 17:33N 47°32' W 122°20'1 1.2
2017-Jan-12 16:33N 47°33' W 122°21'2 1.7
2017-Jan-12 15:33N 47°35' W 122°22'2 1.9
2017-Jan-12 14:33N 47°36' W 122°23'3 3.0
2017-Jan-12 13:33N 47°38' W 122°27'3 2.6
2017-Jan-12 12:33N 47°40' W 122°28'3 3.5
2017-Jan-12 11:33N 47°44' W 122°28'5 4.7
2017-Jan-12 10:33N 47°49' W 122°28'5 4.9
2017-Jan-12 09:33N 47°53' W 122°30'6 5.7
2017-Jan-12 08:33N 47°58' W 122°35'26 5.1
2017-Jan-12 03:33N 48°22' W 122°46'9 9.6
2017-Jan-12 02:33N 48°31' W 122°41'4 3.8
2017-Jan-12 01:33N 48°31' W 122°35'2 2.4
2017-Jan-12 00:33N 48°31' W 122°39'4 4.1
2017-Jan-11 23:33N 48°28' W 122°44'27 6.3
2017-Jan-11 19:17N 48°01' W 122°37'6 7.7
2017-Jan-11 18:34N 47°57' W 122°32'8 7.8
2017-Jan-11 17:33N 47°50' W 122°27'7 7.1
2017-Jan-11 16:33N 47°43' W 122°26'7 6.7
2017-Jan-11 15:33N 47°37' W 122°23'2 1.9
2017-Jan-11 14:33N 47°35' W 122°22'2 1.8
2017-Jan-11 13:33N 47°33' W 122°21'2 2.2
2017-Jan-11 12:33N 47°35' W 122°22'2 2.2
2017-Jan-11 11:33N 47°33' W 122°21'0 0.0
2017-Jan-11 10:33N 47°33' W 122°21'0 0.0
2017-Jan-11 09:33N 47°33' W 122°21'0 0.0
2017-Jan-11 08:33N 47°33' W 122°21'0 0.0
2017-Jan-11 07:33N 47°33' W 122°21'0 0.0
2017-Jan-11 06:33N 47°33' W 122°21'0 0.0
2017-Jan-11 05:33N 47°33' W 122°21'2 2.2
2017-Jan-11 04:33N 47°35' W 122°22'1 1.4
2017-Jan-11 03:33N 47°34' W 122°21'4 4.0
2017-Jan-11 02:33N 47°37' W 122°24'7 7.0
2017-Jan-11 01:33N 47°43' W 122°31'1 0.9
2017-Jan-11 00:33N 47°43' W 122°32'0 0.0
2017-Jan-10 23:33N 47°43' W 122°32'  
Track history (hours):
 
Tides and Currents Weather Stations Pressure Air Temp Water Temp Dewpoint Dewpoint Depression Visibility Wind Speed Wind Dir Waves Ship Positions

Kirsten H

Owner: BOYER TOWING, KETCHIKAN, AK. More information available from US FCC via Universal Licensing System and Coast Guard Vessel Documentation Center.

Last reported at 2017-Jan-20 23:33 UTC. Time now 2017-Feb-21 21:41 UTC.
Position N 47°32' W 122°20'.
Warning: this ship's position is 31 days out of date.

Length 23 m; draft 3.7 m.

Type: Tow > 200 m length. MMSI: 366623050.

Date/timePositionNaut miles runAvg speedWind from/ knotsBaromVisibWave heightAir tempDewpointWater temp
2017-Jan-20 23:33N 47°32' W 122°20'0 0.2
2017-Jan-20 21:31N 47°32' W 122°19'3 3.2
2017-Jan-20 20:33N 47°35' W 122°22'5 5.4
2017-Jan-20 19:33N 47°40' W 122°24'0 0.3
2017-Jan-20 18:33N 47°40' W 122°23'0 0.0
2017-Jan-20 17:33N 47°40' W 122°23'0 0.0
2017-Jan-20 16:33N 47°40' W 122°23'0 0.0
2017-Jan-20 15:33N 47°40' W 122°23'0 0.0
2017-Jan-20 14:33N 47°40' W 122°23'0 0.0
2017-Jan-20 13:33N 47°40' W 122°23'0 0.0
2017-Jan-20 12:33N 47°40' W 122°23'0 0.0
2017-Jan-20 11:33N 47°40' W 122°23'0 0.0
2017-Jan-20 10:33N 47°40' W 122°23'0 0.0
2017-Jan-20 09:33N 47°40' W 122°23'0 0.0
2017-Jan-20 08:33N 47°40' W 122°23'0 0.0
2017-Jan-20 07:33N 47°40' W 122°23'0 0.0
2017-Jan-20 06:33N 47°40' W 122°23'0 0.0
2017-Jan-20 05:33N 47°40' W 122°23'0 0.0
2017-Jan-20 04:33N 47°40' W 122°23'0 0.0
2017-Jan-20 03:34N 47°40' W 122°23'0 0.0
2017-Jan-20 02:33N 47°40' W 122°23'0 0.0
2017-Jan-20 01:33N 47°40' W 122°23'2 1.8
2017-Jan-20 00:33N 47°41' W 122°25'1010.1
2017-Jan-19 23:33N 47°51' W 122°29'9 8.6
2017-Jan-19 22:33N 47°58' W 122°36'30 7.3
2017-Jan-19 18:29N 48°27' W 122°44'7 7.1
2017-Jan-19 17:33N 48°31' W 122°36'0 0.4
2017-Jan-19 16:33N 48°31' W 122°36'1 0.6
2017-Jan-19 15:33N 48°31' W 122°36'1 0.7
2017-Jan-19 14:33N 48°32' W 122°37'2 2.3
2017-Jan-19 13:33N 48°31' W 122°40'1 1.3
2017-Jan-19 12:33N 48°32' W 122°42'3 3.3
2017-Jan-19 11:33N 48°29' W 122°43'4 3.6
2017-Jan-19 10:33N 48°25' W 122°44'24 7.5
2017-Jan-19 07:16N 48°01' W 122°37'6 8.8
2017-Jan-19 06:33N 47°57' W 122°31'8 8.0
2017-Jan-19 05:33N 47°49' W 122°26'8 8.0
2017-Jan-19 04:33N 47°41' W 122°27'7 6.6
2017-Jan-19 03:33N 47°35' W 122°22'3 3.4
2017-Jan-19 02:33N 47°32' W 122°20'0 0.0
2017-Jan-19 01:33N 47°32' W 122°20'  
2017-Jan-15 07:33N 47°32' W 122°20'0 0.5
2017-Jan-15 06:32N 47°33' W 122°20'2 2.2
2017-Jan-15 05:33N 47°35' W 122°22'2 1.9
2017-Jan-15 04:33N 47°36' W 122°23'5 5.5
2017-Jan-15 03:33N 47°40' W 122°28'5 5.4
2017-Jan-15 02:33N 47°46' W 122°27'5 5.5
2017-Jan-15 01:33N 47°51' W 122°29'6 5.9
2017-Jan-15 00:33N 47°56' W 122°33'14 6.9
2017-Jan-14 22:33N 48°08' W 122°43'15 6.5
2017-Jan-14 20:15N 48°23' W 122°45'5 7.2
2017-Jan-14 19:33N 48°28' W 122°44'6 6.1
2017-Jan-14 18:33N 48°31' W 122°36'1 0.7
2017-Jan-14 17:33N 48°31' W 122°36'0 0.1
2017-Jan-14 16:33N 48°31' W 122°36'3 3.4
2017-Jan-14 15:33N 48°31' W 122°41'30 5.5
2017-Jan-14 10:06N 48°01' W 122°37'3 5.3
2017-Jan-14 09:33N 47°59' W 122°35'6 6.0
2017-Jan-14 08:33N 47°55' W 122°28'8 7.7
2017-Jan-14 07:33N 47°47' W 122°26'8 8.1
2017-Jan-14 06:33N 47°39' W 122°27'7 7.1
2017-Jan-14 05:33N 47°33' W 122°21'1 1.4
2017-Jan-14 04:33N 47°32' W 122°20'2 2.4
2017-Jan-14 03:33N 47°34' W 122°21'17 4.2
2017-Jan-13 23:33N 47°20' W 122°33'4 3.7
2017-Jan-13 22:33N 47°16' W 122°33'6 5.6
2017-Jan-13 21:33N 47°11' W 122°37'1 0.2
2017-Jan-13 17:30N 47°10' W 122°38'6 6.2
2017-Jan-13 16:29N 47°16' W 122°34'5 5.5
2017-Jan-13 15:33N 47°21' W 122°33'7 7.5
2017-Jan-13 14:33N 47°28' W 122°31'8 7.5
2017-Jan-13 13:33N 47°35' W 122°26'4 4.1
2017-Jan-13 12:33N 47°33' W 122°20'1 0.1
2017-Jan-12 19:10N 47°32' W 122°20'0 0.0
2017-Jan-12 18:33N 47°32' W 122°20'0 0.0
2017-Jan-12 17:33N 47°32' W 122°20'1 1.2
2017-Jan-12 16:33N 47°33' W 122°21'2 1.7
2017-Jan-12 15:33N 47°35' W 122°22'2 1.9
2017-Jan-12 14:33N 47°36' W 122°23'3 3.0
2017-Jan-12 13:33N 47°38' W 122°27'3 2.6
2017-Jan-12 12:33N 47°40' W 122°28'3 3.5
2017-Jan-12 11:33N 47°44' W 122°28'5 4.7
2017-Jan-12 10:33N 47°49' W 122°28'5 4.9
2017-Jan-12 09:33N 47°53' W 122°30'6 5.7
2017-Jan-12 08:33N 47°58' W 122°35'26 5.1
2017-Jan-12 03:33N 48°22' W 122°46'9 9.6
2017-Jan-12 02:33N 48°31' W 122°41'4 3.8
2017-Jan-12 01:33N 48°31' W 122°35'2 2.4
2017-Jan-12 00:33N 48°31' W 122°39'4 4.1
2017-Jan-11 23:33N 48°28' W 122°44'27 6.3
2017-Jan-11 19:17N 48°01' W 122°37'6 7.7
2017-Jan-11 18:34N 47°57' W 122°32'8 7.8
2017-Jan-11 17:33N 47°50' W 122°27'7 7.1
2017-Jan-11 16:33N 47°43' W 122°26'7 6.7
2017-Jan-11 15:33N 47°37' W 122°23'2 1.9
2017-Jan-11 14:33N 47°35' W 122°22'2 1.8
2017-Jan-11 13:33N 47°33' W 122°21'2 2.2
2017-Jan-11 12:33N 47°35' W 122°22'2 2.2
2017-Jan-11 11:33N 47°33' W 122°21'0 0.0
2017-Jan-11 10:33N 47°33' W 122°21'0 0.0
2017-Jan-11 09:33N 47°33' W 122°21'0 0.0
2017-Jan-11 08:33N 47°33' W 122°21'0 0.0
2017-Jan-11 07:33N 47°33' W 122°21'0 0.0
2017-Jan-11 06:33N 47°33' W 122°21'0 0.0
2017-Jan-11 05:33N 47°33' W 122°21'2 2.2
2017-Jan-11 04:33N 47°35' W 122°22'1 1.4
2017-Jan-11 03:33N 47°34' W 122°21'4 4.0
2017-Jan-11 02:33N 47°37' W 122°24'7 7.0
2017-Jan-11 01:33N 47°43' W 122°31'1 0.9
2017-Jan-11 00:33N 47°43' W 122°32'0 0.0
2017-Jan-10 23:33N 47°43' W 122°32'  

Dump ship's entire track history